sensor_id;sensor_type;location;lat;lon;timestamp;pressure;altitude;pressure_sealevel;temperature;humidity
50368;BME280;36281;34.132;-118.018;2023-02-18T00:00:17;99879.97;;;20.27;14.63
50368;BME280;36281;34.132;-118.018;2023-02-18T00:02:46;99875.66;;;20.26;15.36
50368;BME280;36281;34.132;-118.018;2023-02-18T00:05:20;99869.78;;;20.24;15.25
50368;BME280;36281;34.132;-118.018;2023-02-18T00:07:50;99874.09;;;20.20;16.30
50368;BME280;36281;34.132;-118.018;2023-02-18T00:10:19;99880.53;;;20.19;16.29
50368;BME280;36281;34.132;-118.018;2023-02-18T00:12:48;99873.03;;;20.16;16.28
50368;BME280;36281;34.132;-118.018;2023-02-18T00:15:17;99878.69;;;20.14;15.44
50368;BME280;36281;34.132;-118.018;2023-02-18T00:17:46;99875.44;;;20.12;16.44
50368;BME280;36281;34.132;-118.018;2023-02-18T00:20:15;99879.22;;;20.06;15.31
50368;BME280;36281;34.132;-118.018;2023-02-18T00:22:46;99879.78;;;20.03;15.00
50368;BME280;36281;34.132;-118.018;2023-02-18T00:25:15;99877.91;;;19.99;15.16
50368;BME280;36281;34.132;-118.018;2023-02-18T00:27:44;99874.19;;;19.95;15.82
50368;BME280;36281;34.132;-118.018;2023-02-18T00:30:14;99876.59;;;19.91;15.32
50368;BME280;36281;34.132;-118.018;2023-02-18T00:32:43;99883.59;;;19.87;15.26
50368;BME280;36281;34.132;-118.018;2023-02-18T00:35:12;99877.13;;;19.83;15.52
50368;BME280;36281;34.132;-118.018;2023-02-18T00:37:41;99880.63;;;19.78;15.47
50368;BME280;36281;34.132;-118.018;2023-02-18T00:40:12;99873.38;;;19.74;15.56
50368;BME280;36281;34.132;-118.018;2023-02-18T00:42:41;99870.72;;;19.69;14.89
50368;BME280;36281;34.132;-118.018;2023-02-18T00:45:10;99873.69;;;19.67;15.42
50368;BME280;36281;34.132;-118.018;2023-02-18T00:47:39;99869.13;;;19.62;15.44
50368;BME280;36281;34.132;-118.018;2023-02-18T00:50:08;99863.44;;;19.59;15.84
50368;BME280;36281;34.132;-118.018;2023-02-18T00:52:37;99862.13;;;19.51;15.67
50368;BME280;36281;34.132;-118.018;2023-02-18T00:55:07;99864.03;;;19.46;17.02
50368;BME280;36281;34.132;-118.018;2023-02-18T00:57:37;99871.00;;;19.36;17.92
50368;BME280;36281;34.132;-118.018;2023-02-18T01:00:08;99873.41;;;19.28;18.23
50368;BME280;36281;34.132;-118.018;2023-02-18T01:02:37;99879.34;;;19.20;19.71
50368;BME280;36281;34.132;-118.018;2023-02-18T01:05:06;99867.25;;;19.07;17.82
50368;BME280;36281;34.132;-118.018;2023-02-18T01:07:35;99869.09;;;18.96;16.98
50368;BME280;36281;34.132;-118.018;2023-02-18T01:10:05;99871.50;;;18.88;17.57
50368;BME280;36281;34.132;-118.018;2023-02-18T01:12:34;99866.66;;;18.79;18.64
50368;BME280;36281;34.132;-118.018;2023-02-18T01:15:06;99872.00;;;18.69;19.38
50368;BME280;36281;34.132;-118.018;2023-02-18T01:17:35;99876.25;;;18.60;21.02
50368;BME280;36281;34.132;-118.018;2023-02-18T01:20:05;99883.19;;;18.51;20.82
50368;BME280;36281;34.132;-118.018;2023-02-18T01:22:34;99882.09;;;18.42;21.42
50368;BME280;36281;34.132;-118.018;2023-02-18T01:25:04;99884.19;;;18.29;21.96
50368;BME280;36281;34.132;-118.018;2023-02-18T01:27:33;99888.69;;;18.19;21.91
50368;BME280;36281;34.132;-118.018;2023-02-18T01:30:04;99899.91;;;18.05;22.12
50368;BME280;36281;34.132;-118.018;2023-02-18T01:32:34;99895.00;;;17.92;22.36
50368;BME280;36281;34.132;-118.018;2023-02-18T01:35:04;99896.81;;;17.81;22.26
50368;BME280;36281;34.132;-118.018;2023-02-18T01:37:34;99903.63;;;17.67;23.38
50368;BME280;36281;34.132;-118.018;2023-02-18T01:40:03;99900.84;;;17.52;23.84
50368;BME280;36281;34.132;-118.018;2023-02-18T01:42:32;99903.94;;;17.39;24.21
50368;BME280;36281;34.132;-118.018;2023-02-18T01:48:17;99913.31;;;17.09;24.48
50368;BME280;36281;34.132;-118.018;2023-02-18T01:50:52;99917.72;;;16.93;24.28
50368;BME280;36281;34.132;-118.018;2023-02-18T01:53:26;99918.38;;;16.78;24.73
50368;BME280;36281;34.132;-118.018;2023-02-18T01:55:57;99916.31;;;16.64;24.22
50368;BME280;36281;34.132;-118.018;2023-02-18T01:58:27;99916.66;;;16.50;23.61
50368;BME280;36281;34.132;-118.018;2023-02-18T02:00:57;99918.13;;;16.36;22.78
50368;BME280;36281;34.132;-118.018;2023-02-18T02:03:28;99919.84;;;16.25;22.73
50368;BME280;36281;34.132;-118.018;2023-02-18T02:05:57;99918.41;;;16.18;23.65
50368;BME280;36281;34.132;-118.018;2023-02-18T02:08:27;99927.34;;;16.07;24.39
50368;BME280;36281;34.132;-118.018;2023-02-18T02:11:10;99927.22;;;15.96;24.76
50368;BME280;36281;34.132;-118.018;2023-02-18T02:13:54;99936.44;;;15.89;25.10
50368;BME280;36281;34.132;-118.018;2023-02-18T02:16:32;99931.41;;;15.75;25.28
50368;BME280;36281;34.132;-118.018;2023-02-18T02:19:21;99932.91;;;15.66;25.11
50368;BME280;36281;34.132;-118.018;2023-02-18T02:22:16;99941.03;;;15.60;26.16
50368;BME280;36281;34.132;-118.018;2023-02-18T02:25:16;99937.94;;;15.51;26.66
50368;BME280;36281;34.132;-118.018;2023-02-18T02:28:09;99946.59;;;15.41;26.28
50368;BME280;36281;34.132;-118.018;2023-02-18T02:34:24;99950.53;;;15.22;26.98
50368;BME280;36281;34.132;-118.018;2023-02-18T02:37:01;99954.06;;;15.11;27.33
50368;BME280;36281;34.132;-118.018;2023-02-18T02:39:39;99951.00;;;15.02;27.08
50368;BME280;36281;34.132;-118.018;2023-02-18T02:42:18;99952.16;;;14.94;27.47
50368;BME280;36281;34.132;-118.018;2023-02-18T02:44:56;99961.13;;;14.88;27.07
50368;BME280;36281;34.132;-118.018;2023-02-18T02:47:37;99962.63;;;14.84;27.67
50368;BME280;36281;34.132;-118.018;2023-02-18T02:50:16;99970.19;;;14.76;27.91
50368;BME280;36281;34.132;-118.018;2023-02-18T02:52:51;99979.94;;;14.70;27.63
50368;BME280;36281;34.132;-118.018;2023-02-18T02:55:24;99974.97;;;14.62;28.46
50368;BME280;36281;34.132;-118.018;2023-02-18T02:57:54;99984.41;;;14.53;29.18
50368;BME280;36281;34.132;-118.018;2023-02-18T03:00:29;99981.00;;;14.45;29.15
50368;BME280;36281;34.132;-118.018;2023-02-18T03:03:16;99976.88;;;14.38;28.75
50368;BME280;36281;34.132;-118.018;2023-02-18T03:06:02;99988.66;;;14.30;28.55
50368;BME280;36281;34.132;-118.018;2023-02-18T03:08:52;99993.31;;;14.23;29.19
50368;BME280;36281;34.132;-118.018;2023-02-18T03:11:25;99994.72;;;14.14;29.34
50368;BME280;36281;34.132;-118.018;2023-02-18T03:14:03;99997.13;;;14.04;29.79
50368;BME280;36281;34.132;-118.018;2023-02-18T03:16:36;100000.94;;;13.96;29.65
50368;BME280;36281;34.132;-118.018;2023-02-18T03:19:13;99994.31;;;13.87;29.81
50368;BME280;36281;34.132;-118.018;2023-02-18T03:21:48;99994.69;;;13.79;30.05
50368;BME280;36281;34.132;-118.018;2023-02-18T03:24:22;100001.94;;;13.71;30.21
50368;BME280;36281;34.132;-118.018;2023-02-18T03:26:57;100006.81;;;13.63;30.82
50368;BME280;36281;34.132;-118.018;2023-02-18T03:29:28;100005.84;;;13.57;30.41
50368;BME280;36281;34.132;-118.018;2023-02-18T03:32:00;100004.91;;;13.52;30.61
50368;BME280;36281;34.132;-118.018;2023-02-18T03:34:33;100011.59;;;13.42;31.00
50368;BME280;36281;34.132;-118.018;2023-02-18T03:37:05;100017.81;;;13.36;31.21
50368;BME280;36281;34.132;-118.018;2023-02-18T03:39:36;100018.72;;;13.30;30.51
50368;BME280;36281;34.132;-118.018;2023-02-18T03:42:07;100023.34;;;13.23;30.03
50368;BME280;36281;34.132;-118.018;2023-02-18T03:44:37;100026.03;;;13.16;30.41
50368;BME280;36281;34.132;-118.018;2023-02-18T03:47:06;100026.50;;;13.13;30.88
50368;BME280;36281;34.132;-118.018;2023-02-18T03:49:35;100023.09;;;13.06;31.28
50368;BME280;36281;34.132;-118.018;2023-02-18T03:52:06;100035.19;;;13.02;31.73
50368;BME280;36281;34.132;-118.018;2023-02-18T03:54:35;100039.00;;;12.94;32.19
50368;BME280;36281;34.132;-118.018;2023-02-18T03:57:04;100040.69;;;12.89;30.94
50368;BME280;36281;34.132;-118.018;2023-02-18T03:59:33;100055.47;;;12.85;30.32
50368;BME280;36281;34.132;-118.018;2023-02-18T04:02:02;100064.91;;;12.81;32.38
50368;BME280;36281;34.132;-118.018;2023-02-18T04:04:32;100056.78;;;12.76;32.78
50368;BME280;36281;34.132;-118.018;2023-02-18T04:07:01;100061.53;;;12.74;32.50
50368;BME280;36281;34.132;-118.018;2023-02-18T04:09:32;100064.84;;;12.69;32.84
50368;BME280;36281;34.132;-118.018;2023-02-18T04:12:01;100071.63;;;12.65;33.13
50368;BME280;36281;34.132;-118.018;2023-02-18T04:14:30;100069.84;;;12.59;32.98
50368;BME280;36281;34.132;-118.018;2023-02-18T04:16:59;100070.28;;;12.56;33.28
50368;BME280;36281;34.132;-118.018;2023-02-18T04:19:28;100072.78;;;12.51;33.17
50368;BME280;36281;34.132;-118.018;2023-02-18T04:21:57;100073.44;;;12.46;33.22
50368;BME280;36281;34.132;-118.018;2023-02-18T04:24:26;100075.69;;;12.42;33.43
50368;BME280;36281;34.132;-118.018;2023-02-18T04:26:57;100076.34;;;12.38;33.59
50368;BME280;36281;34.132;-118.018;2023-02-18T04:29:26;100078.03;;;12.32;33.75
50368;BME280;36281;34.132;-118.018;2023-02-18T04:31:55;100074.22;;;12.28;34.04
50368;BME280;36281;34.132;-118.018;2023-02-18T04:34:24;100082.00;;;12.23;34.73
50368;BME280;36281;34.132;-118.018;2023-02-18T04:36:53;100085.09;;;12.20;34.97
50368;BME280;36281;34.132;-118.018;2023-02-18T04:39:23;100094.53;;;12.16;34.57
50368;BME280;36281;34.132;-118.018;2023-02-18T04:41:52;100098.63;;;12.12;34.56
50368;BME280;36281;34.132;-118.018;2023-02-18T04:44:23;100098.28;;;12.08;34.72
50368;BME280;36281;34.132;-118.018;2023-02-18T04:46:52;100103.19;;;12.05;35.16
50368;BME280;36281;34.132;-118.018;2023-02-18T04:49:21;100106.03;;;12.03;35.67
50368;BME280;36281;34.132;-118.018;2023-02-18T04:51:50;100113.66;;;12.00;35.67
50368;BME280;36281;34.132;-118.018;2023-02-18T04:54:19;100111.41;;;11.97;35.25
50368;BME280;36281;34.132;-118.018;2023-02-18T04:56:48;100113.91;;;11.92;34.83
50368;BME280;36281;34.132;-118.018;2023-02-18T04:59:17;100115.16;;;11.89;35.28
50368;BME280;36281;34.132;-118.018;2023-02-18T05:01:48;100121.69;;;11.86;36.21
50368;BME280;36281;34.132;-118.018;2023-02-18T05:04:17;100123.31;;;11.81;36.10
50368;BME280;36281;34.132;-118.018;2023-02-18T05:06:46;100120.91;;;11.79;36.64
50368;BME280;36281;34.132;-118.018;2023-02-18T05:09:15;100132.94;;;11.75;36.07
50368;BME280;36281;34.132;-118.018;2023-02-18T05:11:45;100133.59;;;11.71;36.38
50368;BME280;36281;34.132;-118.018;2023-02-18T05:14:15;100143.81;;;11.67;36.18
50368;BME280;36281;34.132;-118.018;2023-02-18T05:16:44;100144.25;;;11.64;36.28
50368;BME280;36281;34.132;-118.018;2023-02-18T05:19:15;100136.91;;;11.59;35.50
50368;BME280;36281;34.132;-118.018;2023-02-18T05:21:45;100140.78;;;11.57;36.18
50368;BME280;36281;34.132;-118.018;2023-02-18T05:24:16;100137.38;;;11.50;36.83
50368;BME280;36281;34.132;-118.018;2023-02-18T05:26:45;100139.22;;;11.43;36.24
50368;BME280;36281;34.132;-118.018;2023-02-18T05:29:14;100139.66;;;11.39;36.44
50368;BME280;36281;34.132;-118.018;2023-02-18T05:31:43;100136.38;;;11.37;36.67
50368;BME280;36281;34.132;-118.018;2023-02-18T05:34:14;100134.75;;;11.36;37.63
50368;BME280;36281;34.132;-118.018;2023-02-18T05:36:43;100142.94;;;11.35;37.33
50368;BME280;36281;34.132;-118.018;2023-02-18T05:39:12;100149.47;;;11.32;36.91
50368;BME280;36281;34.132;-118.018;2023-02-18T05:41:41;100139.28;;;11.29;36.67
50368;BME280;36281;34.132;-118.018;2023-02-18T05:44:10;100144.59;;;11.29;37.22
50368;BME280;36281;34.132;-118.018;2023-02-18T05:46:58;100144.41;;;11.24;37.23
50368;BME280;36281;34.132;-118.018;2023-02-18T05:49:30;100139.50;;;11.21;36.94
50368;BME280;36281;34.132;-118.018;2023-02-18T05:52:00;100139.72;;;11.20;37.73
50368;BME280;36281;34.132;-118.018;2023-02-18T05:54:29;100136.66;;;11.16;38.04
50368;BME280;36281;34.132;-118.018;2023-02-18T05:56:58;100133.41;;;11.14;37.88
50368;BME280;36281;34.132;-118.018;2023-02-18T05:59:27;100130.16;;;11.12;38.49
50368;BME280;36281;34.132;-118.018;2023-02-18T06:01:57;100125.28;;;11.09;38.21
50368;BME280;36281;34.132;-118.018;2023-02-18T06:04:26;100130.59;;;11.09;38.55
50368;BME280;36281;34.132;-118.018;2023-02-18T06:06:56;100131.00;;;11.06;38.71
50368;BME280;36281;34.132;-118.018;2023-02-18T06:09:25;100121.81;;;11.02;38.92
50368;BME280;36281;34.132;-118.018;2023-02-18T06:11:55;100122.22;;;10.99;39.21
50368;BME280;36281;34.132;-118.018;2023-02-18T06:14:24;100124.50;;;10.95;39.33
50368;BME280;36281;34.132;-118.018;2023-02-18T06:16:53;100123.28;;;10.91;39.51
50368;BME280;36281;34.132;-118.018;2023-02-18T06:19:22;100126.53;;;10.86;39.69
50368;BME280;36281;34.132;-118.018;2023-02-18T06:21:51;100128.19;;;10.81;39.61
50368;BME280;36281;34.132;-118.018;2023-02-18T06:24:22;100125.75;;;10.79;39.19
50368;BME280;36281;34.132;-118.018;2023-02-18T06:26:51;100121.25;;;10.73;39.83
50368;BME280;36281;34.132;-118.018;2023-02-18T06:29:20;100115.38;;;10.71;40.30
50368;BME280;36281;34.132;-118.018;2023-02-18T06:31:49;100111.50;;;10.67;40.19
50368;BME280;36281;34.132;-118.018;2023-02-18T06:34:18;100122.50;;;10.64;40.26
50368;BME280;36281;34.132;-118.018;2023-02-18T06:36:47;100117.63;;;10.61;40.18
50368;BME280;36281;34.132;-118.018;2023-02-18T06:39:16;100124.13;;;10.58;40.71
50368;BME280;36281;34.132;-118.018;2023-02-18T06:41:47;100127.38;;;10.54;40.45
50368;BME280;36281;34.132;-118.018;2023-02-18T06:44:17;100128.22;;;10.48;41.12
50368;BME280;36281;34.132;-118.018;2023-02-18T06:46:46;100130.25;;;10.46;41.58
50368;BME280;36281;34.132;-118.018;2023-02-18T06:49:16;100131.69;;;10.42;41.65
50368;BME280;36281;34.132;-118.018;2023-02-18T06:51:45;100133.09;;;10.38;41.29
50368;BME280;36281;34.132;-118.018;2023-02-18T06:54:15;100134.53;;;10.33;41.55
50368;BME280;36281;34.132;-118.018;2023-02-18T06:56:46;100149.00;;;10.31;41.71
50368;BME280;36281;34.132;-118.018;2023-02-18T06:59:16;100138.22;;;10.26;41.69
50368;BME280;36281;34.132;-118.018;2023-02-18T07:01:45;100144.06;;;10.21;41.54
50368;BME280;36281;34.132;-118.018;2023-02-18T07:04:14;100135.94;;;10.16;40.65
50368;BME280;36281;34.132;-118.018;2023-02-18T07:06:43;100140.00;;;10.12;40.62
50368;BME280;36281;34.132;-118.018;2023-02-18T07:09:13;100144.69;;;10.10;40.99
50368;BME280;36281;34.132;-118.018;2023-02-18T07:11:42;100147.31;;;10.10;40.94
50368;BME280;36281;34.132;-118.018;2023-02-18T07:14:12;100148.09;;;10.04;40.74
50368;BME280;36281;34.132;-118.018;2023-02-18T07:16:41;100146.06;;;9.99;40.56
50368;BME280;36281;34.132;-118.018;2023-02-18T07:19:10;100158.69;;;9.97;40.93
50368;BME280;36281;34.132;-118.018;2023-02-18T07:21:41;100160.91;;;9.94;41.01
50368;BME280;36281;34.132;-118.018;2023-02-18T07:24:10;100160.31;;;9.92;41.88
50368;BME280;36281;34.132;-118.018;2023-02-18T07:26:39;100163.34;;;9.89;41.92
50368;BME280;36281;34.132;-118.018;2023-02-18T07:29:08;100170.06;;;9.84;42.71
50368;BME280;36281;34.132;-118.018;2023-02-18T07:31:39;100156.41;;;9.81;42.54
50368;BME280;36281;34.132;-118.018;2023-02-18T07:34:08;100163.94;;;9.77;42.84
50368;BME280;36281;34.132;-118.018;2023-02-18T07:36:37;100161.88;;;9.73;43.62
50368;BME280;36281;34.132;-118.018;2023-02-18T07:39:06;100161.44;;;9.69;43.52
50368;BME280;36281;34.132;-118.018;2023-02-18T07:41:35;100158.59;;;9.64;43.87
50368;BME280;36281;34.132;-118.018;2023-02-18T07:44:04;100161.81;;;9.59;43.86
50368;BME280;36281;34.132;-118.018;2023-02-18T07:46:33;100159.78;;;9.55;44.10
50368;BME280;36281;34.132;-118.018;2023-02-18T07:49:04;100160.19;;;9.52;43.21
50368;BME280;36281;34.132;-118.018;2023-02-18T07:51:33;100155.28;;;9.49;43.16
50368;BME280;36281;34.132;-118.018;2023-02-18T07:54:02;100152.41;;;9.44;43.03
50368;BME280;36281;34.132;-118.018;2023-02-18T07:56:31;100148.94;;;9.43;43.54
50368;BME280;36281;34.132;-118.018;2023-02-18T07:59:00;100151.81;;;9.42;44.42
50368;BME280;36281;34.132;-118.018;2023-02-18T08:01:29;100145.88;;;9.40;44.25
50368;BME280;36281;34.132;-118.018;2023-02-18T08:03:59;100151.38;;;9.38;44.07
50368;BME280;36281;34.132;-118.018;2023-02-18T08:06:34;100153.59;;;9.35;43.96
50368;BME280;36281;34.132;-118.018;2023-02-18T08:09:04;100149.31;;;9.33;44.37
50368;BME280;36281;34.132;-118.018;2023-02-18T08:11:34;100152.97;;;9.32;45.14
50368;BME280;36281;34.132;-118.018;2023-02-18T08:14:03;100149.53;;;9.32;45.03
50368;BME280;36281;34.132;-118.018;2023-02-18T08:16:32;100157.00;;;9.28;44.18
50368;BME280;36281;34.132;-118.018;2023-02-18T08:19:02;100159.66;;;9.28;43.79
50368;BME280;36281;34.132;-118.018;2023-02-18T08:21:33;100164.34;;;9.26;44.02
50368;BME280;36281;34.132;-118.018;2023-02-18T08:24:02;100168.00;;;9.25;43.89
50368;BME280;36281;34.132;-118.018;2023-02-18T08:26:31;100175.94;;;9.25;44.30
50368;BME280;36281;34.132;-118.018;2023-02-18T08:29:00;100172.84;;;9.22;44.44
50368;BME280;36281;34.132;-118.018;2023-02-18T08:31:30;100172.41;;;9.18;44.37
50368;BME280;36281;34.132;-118.018;2023-02-18T08:34:00;100166.91;;;9.13;44.57
50368;BME280;36281;34.132;-118.018;2023-02-18T08:36:32;100167.31;;;9.10;44.89
50368;BME280;36281;34.132;-118.018;2023-02-18T08:39:01;100167.69;;;9.07;44.52
50368;BME280;36281;34.132;-118.018;2023-02-18T08:41:30;100173.34;;;9.04;44.90
50368;BME280;36281;34.132;-118.018;2023-02-18T08:43:59;100168.47;;;9.01;44.83
50368;BME280;36281;34.132;-118.018;2023-02-18T08:46:28;100170.66;;;8.97;44.51
50368;BME280;36281;34.132;-118.018;2023-02-18T08:49:03;100172.06;;;8.93;44.61
50368;BME280;36281;34.132;-118.018;2023-02-18T08:51:34;100168.00;;;8.91;45.14
50368;BME280;36281;34.132;-118.018;2023-02-18T08:54:03;100169.63;;;8.92;45.06
50368;BME280;36281;34.132;-118.018;2023-02-18T08:56:33;100171.44;;;8.91;45.35
50368;BME280;36281;34.132;-118.018;2023-02-18T08:59:02;100163.69;;;8.90;44.80
50368;BME280;36281;34.132;-118.018;2023-02-18T09:01:31;100158.19;;;8.85;44.71
50368;BME280;36281;34.132;-118.018;2023-02-18T09:04:00;100148.84;;;8.82;44.93
50368;BME280;36281;34.132;-118.018;2023-02-18T09:06:30;100159.59;;;8.80;44.77
50368;BME280;36281;34.132;-118.018;2023-02-18T09:09:00;100156.97;;;8.80;44.46
50368;BME280;36281;34.132;-118.018;2023-02-18T09:11:30;100156.31;;;8.78;44.50
50368;BME280;36281;34.132;-118.018;2023-02-18T09:13:59;100154.69;;;8.77;44.92
50368;BME280;36281;34.132;-118.018;2023-02-18T09:16:28;100155.50;;;8.78;45.68
50368;BME280;36281;34.132;-118.018;2023-02-18T09:18:57;100156.53;;;8.77;45.95
50368;BME280;36281;34.132;-118.018;2023-02-18T09:21:27;100150.44;;;8.76;46.04
50368;BME280;36281;34.132;-118.018;2023-02-18T09:23:56;100147.13;;;8.74;46.00
50368;BME280;36281;34.132;-118.018;2023-02-18T09:26:27;100134.34;;;8.71;45.20
50368;BME280;36281;34.132;-118.018;2023-02-18T09:28:56;100133.69;;;8.69;44.59
50368;BME280;36281;34.132;-118.018;2023-02-18T09:31:26;100128.63;;;8.68;44.40
50368;BME280;36281;34.132;-118.018;2023-02-18T09:33:57;100126.19;;;8.66;43.78
50368;BME280;36281;34.132;-118.018;2023-02-18T09:36:27;100119.28;;;8.65;44.33
50368;BME280;36281;34.132;-118.018;2023-02-18T09:38:56;100119.44;;;8.64;45.13
50368;BME280;36281;34.132;-118.018;2023-02-18T09:41:40;100108.06;;;8.63;44.85
50368;BME280;36281;34.132;-118.018;2023-02-18T09:44:15;100119.84;;;8.61;44.94
50368;BME280;36281;34.132;-118.018;2023-02-18T09:46:49;100104.19;;;8.59;44.95
50368;BME280;36281;34.132;-118.018;2023-02-18T09:49:22;100100.28;;;8.55;44.58
50368;BME280;36281;34.132;-118.018;2023-02-18T09:51:52;100101.72;;;8.51;45.15
50368;BME280;36281;34.132;-118.018;2023-02-18T09:54:22;100094.16;;;8.48;44.80
50368;BME280;36281;34.132;-118.018;2023-02-18T09:56:53;100098.19;;;8.44;45.08
50368;BME280;36281;34.132;-118.018;2023-02-18T09:59:24;100098.59;;;8.41;44.89
50368;BME280;36281;34.132;-118.018;2023-02-18T10:01:54;100104.25;;;8.38;45.63
50368;BME280;36281;34.132;-118.018;2023-02-18T10:04:28;100107.63;;;8.32;45.56
50368;BME280;36281;34.132;-118.018;2023-02-18T10:07:00;100098.00;;;8.24;45.84
50368;BME280;36281;34.132;-118.018;2023-02-18T10:09:34;100101.22;;;8.19;46.36
50368;BME280;36281;34.132;-118.018;2023-02-18T10:12:12;100099.94;;;8.15;46.85
50368;BME280;36281;34.132;-118.018;2023-02-18T10:14:53;100099.91;;;8.09;46.52
50368;BME280;36281;34.132;-118.018;2023-02-18T10:17:24;100101.47;;;8.03;45.85
50368;BME280;36281;34.132;-118.018;2023-02-18T10:19:55;100096.78;;;7.98;46.12
50368;BME280;36281;34.132;-118.018;2023-02-18T10:22:26;100100.63;;;7.96;46.51
50368;BME280;36281;34.132;-118.018;2023-02-18T10:24:57;100099.53;;;7.90;46.94
50368;BME280;36281;34.132;-118.018;2023-02-18T10:27:30;100091.19;;;7.87;47.16
50368;BME280;36281;34.132;-118.018;2023-02-18T10:30:08;100086.28;;;7.84;46.92
50368;BME280;36281;34.132;-118.018;2023-02-18T10:32:45;100084.00;;;7.81;47.21
50368;BME280;36281;34.132;-118.018;2023-02-18T10:35:18;100091.91;;;7.81;47.19
50368;BME280;36281;34.132;-118.018;2023-02-18T10:38:00;100086.03;;;7.78;46.88
50368;BME280;36281;34.132;-118.018;2023-02-18T10:40:41;100077.31;;;7.78;46.76
50368;BME280;36281;34.132;-118.018;2023-02-18T10:43:24;100085.59;;;7.75;47.39
50368;BME280;36281;34.132;-118.018;2023-02-18T10:46:06;100078.06;;;7.72;47.72
50368;BME280;36281;34.132;-118.018;2023-02-18T10:48:53;100078.44;;;7.69;47.83
50368;BME280;36281;34.132;-118.018;2023-02-18T10:51:30;100073.72;;;7.64;48.14
50368;BME280;36281;34.132;-118.018;2023-02-18T10:53:59;100074.28;;;7.60;47.88
50368;BME280;36281;34.132;-118.018;2023-02-18T10:56:34;100066.94;;;7.55;46.92
50368;BME280;36281;34.132;-118.018;2023-02-18T10:59:10;100069.97;;;7.52;46.70
50368;BME280;36281;34.132;-118.018;2023-02-18T11:01:41;100067.69;;;7.49;47.46
50368;BME280;36281;34.132;-118.018;2023-02-18T11:04:14;100065.84;;;7.49;47.32
50368;BME280;36281;34.132;-118.018;2023-02-18T11:06:45;100071.94;;;7.50;47.73
50368;BME280;36281;34.132;-118.018;2023-02-18T11:09:30;100062.41;;;7.49;47.65
50368;BME280;36281;34.132;-118.018;2023-02-18T11:12:03;100069.69;;;7.47;47.94
50368;BME280;36281;34.132;-118.018;2023-02-18T11:14:40;100062.81;;;7.46;48.13
50368;BME280;36281;34.132;-118.018;2023-02-18T11:17:20;100059.72;;;7.42;47.42
50368;BME280;36281;34.132;-118.018;2023-02-18T11:19:54;100053.63;;;7.42;48.16
50368;BME280;36281;34.132;-118.018;2023-02-18T11:22:25;100060.72;;;7.41;47.90
50368;BME280;36281;34.132;-118.018;2023-02-18T11:24:58;100066.16;;;7.40;48.94
50368;BME280;36281;34.132;-118.018;2023-02-18T11:27:31;100062.09;;;7.37;48.29
50368;BME280;36281;34.132;-118.018;2023-02-18T11:30:18;100064.28;;;7.34;48.52
50368;BME280;36281;34.132;-118.018;2023-02-18T11:32:49;100062.00;;;7.31;49.13
50368;BME280;36281;34.132;-118.018;2023-02-18T11:35:21;100059.75;;;7.28;48.74
50368;BME280;36281;34.132;-118.018;2023-02-18T11:37:51;100066.19;;;7.25;49.29
50368;BME280;36281;34.132;-118.018;2023-02-18T11:40:23;100054.38;;;7.21;49.52
50368;BME280;36281;34.132;-118.018;2023-02-18T11:43:03;100051.31;;;7.17;48.39
50368;BME280;36281;34.132;-118.018;2023-02-18T11:45:34;100049.88;;;7.15;48.66
50368;BME280;36281;34.132;-118.018;2023-02-18T11:48:08;100053.69;;;7.12;48.61
50368;BME280;36281;34.132;-118.018;2023-02-18T11:50:43;100055.69;;;7.10;48.56
50368;BME280;36281;34.132;-118.018;2023-02-18T11:53:33;100055.06;;;7.08;49.17
50368;BME280;36281;34.132;-118.018;2023-02-18T11:56:04;100050.97;;;7.06;48.50
50368;BME280;36281;34.132;-118.018;2023-02-18T11:58:37;100051.16;;;7.04;49.25
50368;BME280;36281;34.132;-118.018;2023-02-18T12:01:14;100058.78;;;6.99;48.86
50368;BME280;36281;34.132;-118.018;2023-02-18T12:03:50;100056.72;;;6.94;49.42
50368;BME280;36281;34.132;-118.018;2023-02-18T12:06:23;100050.38;;;6.89;49.57
50368;BME280;36281;34.132;-118.018;2023-02-18T12:08:59;100045.84;;;6.83;49.76
50368;BME280;36281;34.132;-118.018;2023-02-18T12:11:32;100046.00;;;6.81;49.91
50368;BME280;36281;34.132;-118.018;2023-02-18T12:14:07;100050.63;;;6.79;49.37
50368;BME280;36281;34.132;-118.018;2023-02-18T12:16:44;100057.09;;;6.77;49.81
50368;BME280;36281;34.132;-118.018;2023-02-18T12:19:35;100059.09;;;6.74;50.01
50368;BME280;36281;34.132;-118.018;2023-02-18T12:22:14;100066.34;;;6.72;49.36
50368;BME280;36281;34.132;-118.018;2023-02-18T12:24:55;100057.81;;;6.70;49.41
50368;BME280;36281;34.132;-118.018;2023-02-18T12:27:36;100061.44;;;6.69;49.63
50368;BME280;36281;34.132;-118.018;2023-02-18T12:30:36;100061.81;;;6.66;49.70
50368;BME280;36281;34.132;-118.018;2023-02-18T12:33:17;100066.44;;;6.64;50.20
50368;BME280;36281;34.132;-118.018;2023-02-18T12:36:03;100075.34;;;6.63;49.74
50368;BME280;36281;34.132;-118.018;2023-02-18T12:39:01;100074.88;;;6.60;50.29
50368;BME280;36281;34.132;-118.018;2023-02-18T12:41:45;100073.44;;;6.57;50.61
50368;BME280;36281;34.132;-118.018;2023-02-18T12:44:35;100085.94;;;6.55;50.96
50368;BME280;36281;34.132;-118.018;2023-02-18T12:50:30;100084.84;;;6.50;50.14
50368;BME280;36281;34.132;-118.018;2023-02-18T12:53:15;100083.41;;;6.47;50.58
50368;BME280;36281;34.132;-118.018;2023-02-18T12:56:00;100087.00;;;6.46;50.75
50368;BME280;36281;34.132;-118.018;2023-02-18T12:58:45;100091.00;;;6.42;50.52
50368;BME280;36281;34.132;-118.018;2023-02-18T13:01:33;100087.91;;;6.38;50.63
50368;BME280;36281;34.132;-118.018;2023-02-18T13:04:26;100096.63;;;6.39;49.70